Time;durP1;ratioP1;P1;durP2;ratioP2;P2;SDS_P1;SDS_P2;PMS_P1;PMS_P2;Temp;Humidity;BMP_temperature;BMP_pressure;BME280_temperature;BME280_humidity;BME280_pressure;Samples;Min_cycle;Max_cycle;Signal;HPM_P1;HPM_P2
2024/01/29 00:01:44;;;;;;;13.25;7.53;;;;;;;;;;5102625;28;20351;-77
2024/01/29 00:04:09;;;;;;;10.55;8.52;;;;;;;;;;5110333;28;20021;-77
2024/01/29 00:06:34;;;;;;;12.17;8.00;;;;;;;;;;5103707;28;20020;-77
2024/01/29 00:09:00;;;;;;;12.17;7.77;;;;;;;;;;5106824;28;20772;-77
2024/01/29 00:11:25;;;;;;;11.98;8.05;;;;;;;;;;5105124;28;20269;-77
2024/01/29 00:13:50;;;;;;;13.13;8.10;;;;;;;;;;5103873;28;20375;-77
2024/01/29 00:16:15;;;;;;;13.47;7.90;;;;;;;;;;5111011;28;20085;-77
2024/01/29 00:18:40;;;;;;;11.40;8.00;;;;;;;;;;5103761;28;20265;-77
2024/01/29 00:21:06;;;;;;;13.47;7.70;;;;;;;;;;5108714;28;20727;-77
2024/01/29 00:23:31;;;;;;;11.65;7.93;;;;;;;;;;5104793;28;20269;-77
2024/01/29 00:25:56;;;;;;;14.88;8.93;;;;;;;;;;5107259;28;20068;-77
2024/01/29 00:28:21;;;;;;;11.57;7.73;;;;;;;;;;5106249;28;20052;-77
2024/01/29 00:30:47;;;;;;;12.15;8.10;;;;;;;;;;5103429;28;20269;-77
2024/01/29 00:33:12;;;;;;;12.82;8.43;;;;;;;;;;5105809;28;20103;-77
2024/01/29 00:35:37;;;;;;;14.30;8.30;;;;;;;;;;5105961;28;20066;-77
2024/01/29 00:38:02;;;;;;;10.65;7.47;;;;;;;;;;5103259;28;20098;-77
2024/01/29 00:40:30;;;;;;;13.43;8.20;;;;;;;;;;5106498;28;20008;-77
2024/01/29 00:42:55;;;;;;;13.35;7.63;;;;;;;;;;5103400;28;20410;-77
2024/01/29 00:45:20;;;;;;;9.63;7.67;;;;;;;;;;5105650;28;20072;-77
2024/01/29 00:47:45;;;;;;;11.98;8.15;;;;;;;;;;5104676;28;20282;-77
2024/01/29 00:50:10;;;;;;;10.50;8.00;;;;;;;;;;5104468;28;20051;-77
2024/01/29 00:52:36;;;;;;;12.25;7.97;;;;;;;;;;5105937;28;20046;-77
2024/01/29 00:55:01;;;;;;;12.43;8.10;;;;;;;;;;5103180;28;20032;-77
2024/01/29 00:57:26;;;;;;;11.13;8.05;;;;;;;;;;5105291;28;20296;-77
2024/01/29 00:59:51;;;;;;;12.38;7.90;;;;;;;;;;5104628;28;20047;-77
2024/01/29 01:02:17;;;;;;;11.97;8.27;;;;;;;;;;5104636;28;20050;-77
2024/01/29 01:04:42;;;;;;;12.33;8.43;;;;;;;;;;5106646;28;20266;-77
2024/01/29 01:07:07;;;;;;;10.17;7.83;;;;;;;;;;5102298;28;20298;-77
2024/01/29 01:09:32;;;;;;;11.73;7.87;;;;;;;;;;5109444;28;20273;-77
2024/01/29 01:11:57;;;;;;;10.83;8.10;;;;;;;;;;5101048;28;20258;-77
2024/01/29 01:14:22;;;;;;;12.93;8.27;;;;;;;;;;5104396;28;20326;-77
2024/01/29 01:16:48;;;;;;;10.27;7.50;;;;;;;;;;5109362;28;20391;-77
2024/01/29 01:19:13;;;;;;;12.93;8.57;;;;;;;;;;5101667;28;20303;-77
2024/01/29 01:21:38;;;;;;;13.88;8.32;;;;;;;;;;5110765;28;20617;-77
2024/01/29 01:24:03;;;;;;;12.75;8.00;;;;;;;;;;5101418;28;20363;-77
2024/01/29 01:26:29;;;;;;;10.70;7.82;;;;;;;;;;5100210;28;20105;-77
2024/01/29 01:28:54;;;;;;;17.27;8.13;;;;;;;;;;5107539;28;20024;-77
2024/01/29 01:31:19;;;;;;;12.88;8.55;;;;;;;;;;5101204;28;20432;-77
2024/01/29 01:33:44;;;;;;;12.80;7.93;;;;;;;;;;5107203;28;20443;-77
2024/01/29 01:36:09;;;;;;;11.37;7.90;;;;;;;;;;5101897;28;20274;-77
2024/01/29 01:38:34;;;;;;;12.13;8.17;;;;;;;;;;5107385;28;20253;-77
2024/01/29 01:41:00;;;;;;;11.00;7.17;;;;;;;;;;5101772;28;20795;-77
2024/01/29 01:43:25;;;;;;;11.80;8.03;;;;;;;;;;5105762;28;20257;-77
2024/01/29 01:46:10;;;;;;;13.50;8.23;;;;;;;;;;5103908;28;20483;-77
2024/01/29 01:48:36;;;;;;;11.80;8.18;;;;;;;;;;5105144;28;20031;-77
2024/01/29 01:51:02;;;;;;;13.40;8.10;;;;;;;;;;5102725;28;20076;-77
2024/01/29 01:53:30;;;;;;;11.82;8.60;;;;;;;;;;5104045;28;20030;-77
2024/01/29 01:55:55;;;;;;;12.70;8.10;;;;;;;;;;5104643;28;20047;-77
2024/01/29 01:58:22;;;;;;;10.55;8.07;;;;;;;;;;5103049;28;20011;-77
2024/01/29 02:00:48;;;;;;;12.18;8.07;;;;;;;;;;5107654;28;20043;-77
2024/01/29 02:03:13;;;;;;;14.02;8.20;;;;;;;;;;5101965;28;20103;-77
2024/01/29 02:05:38;;;;;;;11.07;8.55;;;;;;;;;;5103635;28;20023;-77
2024/01/29 02:08:04;;;;;;;11.55;7.70;;;;;;;;;;5101983;28;20036;-77
2024/01/29 02:10:29;;;;;;;13.60;8.93;;;;;;;;;;5103064;28;20031;-77
2024/01/29 02:12:55;;;;;;;10.98;8.07;;;;;;;;;;5103269;28;20031;-77
2024/01/29 02:15:20;;;;;;;11.02;8.05;;;;;;;;;;5103583;28;20080;-77
2024/01/29 02:17:45;;;;;;;12.00;8.32;;;;;;;;;;5103785;28;20016;-77
2024/01/29 02:20:10;;;;;;;11.53;7.83;;;;;;;;;;5103062;28;20160;-77
2024/01/29 02:22:39;;;;;;;13.85;8.00;;;;;;;;;;5100160;28;20254;-77
2024/01/29 02:25:05;;;;;;;13.23;8.05;;;;;;;;;;5103636;28;20027;-77
2024/01/29 02:27:30;;;;;;;10.73;8.00;;;;;;;;;;5100779;28;20012;-77
2024/01/29 02:29:55;;;;;;;12.80;7.60;;;;;;;;;;5103003;28;20012;-77
2024/01/29 02:32:20;;;;;;;10.70;7.68;;;;;;;;;;5101265;28;20831;-77
2024/01/29 02:34:45;;;;;;;12.77;7.90;;;;;;;;;;5101166;28;20040;-77
2024/01/29 02:37:11;;;;;;;15.23;8.17;;;;;;;;;;5103035;28;20298;-77
2024/01/29 02:39:36;;;;;;;13.13;8.05;;;;;;;;;;5101393;28;20798;-77
2024/01/29 02:42:01;;;;;;;11.20;8.03;;;;;;;;;;5102329;28;20035;-77
2024/01/29 02:44:26;;;;;;;10.63;7.53;;;;;;;;;;5102055;28;20276;-77
2024/01/29 02:46:54;;;;;;;12.60;8.73;;;;;;;;;;5100510;28;20258;-77
2024/01/29 02:49:19;;;;;;;12.63;8.85;;;;;;;;;;5109391;28;20011;-77
2024/01/29 02:51:44;;;;;;;13.50;8.40;;;;;;;;;;5095595;28;20023;-77
2024/01/29 02:54:09;;;;;;;12.37;7.80;;;;;;;;;;5101497;28;20309;-77
2024/01/29 02:56:35;;;;;;;11.20;7.90;;;;;;;;;;5103221;28;20273;-77
2024/01/29 02:59:00;;;;;;;14.35;7.85;;;;;;;;;;5064599;28;1054511;-79
2024/01/29 03:01:26;;;;;;;14.80;8.25;;;;;;;;;;5100587;28;20016;-77
2024/01/29 03:03:51;;;;;;;12.30;8.32;;;;;;;;;;5105891;28;20387;-77
2024/01/29 03:06:16;;;;;;;17.17;9.37;;;;;;;;;;5102643;28;20788;-77
2024/01/29 03:08:43;;;;;;;12.57;8.80;;;;;;;;;;5105054;28;20349;-77
2024/01/29 03:11:08;;;;;;;12.23;9.13;;;;;;;;;;5102898;28;20060;-77
2024/01/29 03:13:33;;;;;;;15.43;8.47;;;;;;;;;;5103262;28;20027;-77
2024/01/29 03:15:58;;;;;;;14.17;9.57;;;;;;;;;;5103269;28;20320;-77
2024/01/29 03:18:23;;;;;;;13.67;9.67;;;;;;;;;;5103045;28;20277;-77
2024/01/29 03:20:48;;;;;;;11.93;7.83;;;;;;;;;;5103675;28;20269;-77
2024/01/29 03:23:14;;;;;;;15.47;9.10;;;;;;;;;;5103889;28;20740;-77
2024/01/29 03:25:39;;;;;;;13.88;8.38;;;;;;;;;;5100695;28;20258;-77
2024/01/29 03:28:04;;;;;;;15.27;8.50;;;;;;;;;;5103366;28;20019;-77
2024/01/29 03:30:29;;;;;;;11.07;8.07;;;;;;;;;;5101410;28;20270;-77
2024/01/29 03:32:56;;;;;;;13.87;8.20;;;;;;;;;;5097863;28;20019;-77
2024/01/29 03:35:21;;;;;;;12.93;8.55;;;;;;;;;;5103643;28;20301;-77
2024/01/29 03:37:46;;;;;;;14.68;8.00;;;;;;;;;;5101408;28;20047;-77
2024/01/29 03:40:12;;;;;;;12.65;7.90;;;;;;;;;;5103177;28;20023;-77
2024/01/29 03:42:37;;;;;;;11.68;8.18;;;;;;;;;;5102587;28;20024;-77
2024/01/29 03:45:02;;;;;;;13.40;8.40;;;;;;;;;;5102104;28;20047;-77
2024/01/29 03:47:27;;;;;;;13.77;8.02;;;;;;;;;;5103955;28;20270;-77
2024/01/29 03:49:53;;;;;;;11.30;8.13;;;;;;;;;;5100489;28;20044;-77
2024/01/29 03:52:18;;;;;;;11.27;7.77;;;;;;;;;;5106855;28;20625;-77
2024/01/29 03:54:43;;;;;;;12.57;8.02;;;;;;;;;;5100334;28;20293;-77
2024/01/29 03:57:08;;;;;;;11.23;8.83;;;;;;;;;;5110861;28;20035;-77
2024/01/29 03:59:34;;;;;;;15.90;9.10;;;;;;;;;;5103200;28;20349;-77
2024/01/29 04:02:00;;;;;;;16.25;8.75;;;;;;;;;;5111605;28;20272;-77
2024/01/29 04:04:25;;;;;;;13.48;8.55;;;;;;;;;;5103684;28;20020;-77
2024/01/29 04:06:52;;;;;;;13.07;8.07;;;;;;;;;;5103030;28;20061;-77
2024/01/29 04:09:21;;;;;;;12.25;8.40;;;;;;;;;;5108701;28;20817;-77
2024/01/29 04:11:46;;;;;;;12.45;8.13;;;;;;;;;;5103352;28;20023;-77
2024/01/29 04:14:11;;;;;;;10.85;7.78;;;;;;;;;;5108272;28;20032;-77
2024/01/29 04:16:37;;;;;;;14.38;8.93;;;;;;;;;;5103991;28;20035;-77
2024/01/29 04:19:02;;;;;;;12.17;8.60;;;;;;;;;;5104935;28;20035;-77
2024/01/29 04:21:27;;;;;;;12.73;8.03;;;;;;;;;;5103323;28;21070;-77
2024/01/29 04:23:52;;;;;;;11.40;7.87;;;;;;;;;;5104968;28;20362;-77
2024/01/29 04:26:18;;;;;;;10.95;8.23;;;;;;;;;;5105128;28;20262;-77
2024/01/29 04:28:43;;;;;;;12.55;8.30;;;;;;;;;;5104914;28;20024;-77
2024/01/29 04:31:08;;;;;;;10.80;7.80;;;;;;;;;;5105017;28;20040;-77
2024/01/29 04:33:35;;;;;;;11.27;8.20;;;;;;;;;;5098343;28;20787;-77
2024/01/29 04:36:01;;;;;;;9.85;7.65;;;;;;;;;;5105517;28;20131;-77
2024/01/29 04:38:26;;;;;;;13.07;7.95;;;;;;;;;;5105572;28;20102;-77
2024/01/29 04:40:52;;;;;;;12.05;7.97;;;;;;;;;;5104036;28;20122;-77
2024/01/29 04:43:17;;;;;;;11.87;7.30;;;;;;;;;;5105576;28;20015;-77
2024/01/29 04:45:42;;;;;;;10.57;7.97;;;;;;;;;;5103383;28;20274;-77
2024/01/29 04:48:07;;;;;;;9.82;7.45;;;;;;;;;;5105828;28;20293;-77
2024/01/29 04:50:32;;;;;;;11.20;7.37;;;;;;;;;;5103328;28;20046;-77
2024/01/29 04:52:58;;;;;;;10.33;7.67;;;;;;;;;;5105681;28;20303;-77
2024/01/29 04:55:23;;;;;;;11.05;7.43;;;;;;;;;;5105694;28;20392;-77
2024/01/29 04:57:48;;;;;;;12.35;7.80;;;;;;;;;;5108264;28;20023;-77
2024/01/29 05:00:13;;;;;;;13.55;6.95;;;;;;;;;;5105735;28;20089;-77
2024/01/29 05:02:38;;;;;;;11.50;7.72;;;;;;;;;;5104545;28;20058;-77
2024/01/29 05:05:04;;;;;;;11.57;7.03;;;;;;;;;;5103748;28;20016;-77
2024/01/29 05:07:29;;;;;;;10.20;7.32;;;;;;;;;;5105037;28;20261;-77
2024/01/29 05:09:54;;;;;;;10.57;7.30;;;;;;;;;;5109802;28;20061;-77
2024/01/29 05:12:19;;;;;;;13.03;7.80;;;;;;;;;;5105092;28;20614;-77
2024/01/29 05:14:44;;;;;;;12.77;7.90;;;;;;;;;;5106850;28;20344;-77
2024/01/29 05:17:10;;;;;;;11.18;7.40;;;;;;;;;;5103061;28;20024;-77
2024/01/29 05:19:35;;;;;;;10.07;7.33;;;;;;;;;;5108580;28;20035;-77
2024/01/29 05:22:01;;;;;;;9.35;7.05;;;;;;;;;;5102252;28;20341;-77
2024/01/29 05:24:28;;;;;;;10.93;7.03;;;;;;;;;;5110085;28;20106;-77
2024/01/29 05:26:53;;;;;;;10.65;6.72;;;;;;;;;;5101969;28;20012;-77
2024/01/29 05:29:18;;;;;;;11.25;7.47;;;;;;;;;;5102934;28;20057;-77
2024/01/29 05:31:43;;;;;;;11.50;7.10;;;;;;;;;;5106088;28;20349;-77
2024/01/29 05:34:08;;;;;;;14.13;7.50;;;;;;;;;;5101806;28;20289;-77
2024/01/29 05:36:33;;;;;;;11.73;7.27;;;;;;;;;;5107666;28;20415;-77
2024/01/29 05:38:59;;;;;;;10.47;7.23;;;;;;;;;;5101132;28;20307;-77
2024/01/29 05:41:24;;;;;;;11.15;7.20;;;;;;;;;;5107990;28;20288;-77
2024/01/29 05:43:49;;;;;;;12.77;7.43;;;;;;;;;;5101159;28;20092;-76
2024/01/29 05:46:14;;;;;;;9.85;7.32;;;;;;;;;;5105711;28;20266;-77
2024/01/29 05:48:39;;;;;;;11.77;7.30;;;;;;;;;;5103454;28;20030;-77
2024/01/29 05:51:04;;;;;;;8.83;6.70;;;;;;;;;;5103208;28;20792;-77
2024/01/29 05:53:30;;;;;;;11.20;6.78;;;;;;;;;;5104226;28;20269;-77
2024/01/29 05:55:55;;;;;;;11.07;7.60;;;;;;;;;;5102295;28;20036;-77
2024/01/29 05:58:21;;;;;;;10.57;6.57;;;;;;;;;;5108308;28;20368;-77
2024/01/29 06:00:46;;;;;;;10.32;6.82;;;;;;;;;;5103538;28;20303;-77
2024/01/29 06:03:12;;;;;;;9.82;7.38;;;;;;;;;;5105072;28;20023;-77
2024/01/29 06:05:37;;;;;;;11.45;6.80;;;;;;;;;;5104532;28;20472;-77
2024/01/29 06:08:03;;;;;;;12.90;7.07;;;;;;;;;;5103209;28;20118;-77
2024/01/29 06:10:28;;;;;;;9.93;6.93;;;;;;;;;;5104968;28;20265;-77
2024/01/29 06:12:53;;;;;;;12.32;7.63;;;;;;;;;;5104092;28;20024;-77
2024/01/29 06:15:19;;;;;;;9.13;6.97;;;;;;;;;;5103278;28;20035;-77
2024/01/29 06:17:44;;;;;;;11.73;7.28;;;;;;;;;;5104089;28;20028;-77
2024/01/29 06:20:10;;;;;;;14.70;7.60;;;;;;;;;;5103678;28;20047;-77
2024/01/29 06:22:35;;;;;;;10.63;6.85;;;;;;;;;;5109645;28;20019;-77
2024/01/29 06:25:00;;;;;;;11.07;7.30;;;;;;;;;;5106994;28;20024;-77
2024/01/29 06:27:25;;;;;;;11.57;7.50;;;;;;;;;;5103982;28;20022;-77
2024/01/29 06:29:51;;;;;;;11.77;7.27;;;;;;;;;;5103490;28;20410;-77
2024/01/29 06:32:16;;;;;;;12.43;6.97;;;;;;;;;;5101299;28;20266;-77
2024/01/29 06:34:41;;;;;;;9.13;6.57;;;;;;;;;;5099949;28;20300;-77
2024/01/29 06:37:06;;;;;;;11.15;7.70;;;;;;;;;;5100218;28;20262;-77
2024/01/29 06:39:32;;;;;;;13.20;7.30;;;;;;;;;;5102366;28;20109;-77
2024/01/29 06:41:57;;;;;;;13.30;7.35;;;;;;;;;;5104497;28;20800;-77
2024/01/29 06:44:23;;;;;;;10.73;7.35;;;;;;;;;;5101075;28;20400;-77
2024/01/29 06:46:48;;;;;;;11.30;7.30;;;;;;;;;;5106419;28;20111;-77
2024/01/29 06:49:24;;;;;;;9.37;7.20;;;;;;;;;;5099878;28;20277;-77
2024/01/29 06:51:49;;;;;;;11.90;6.57;;;;;;;;;;5106762;28;20301;-77
2024/01/29 06:54:15;;;;;;;11.90;7.80;;;;;;;;;;5100517;28;20098;-77
2024/01/29 06:56:40;;;;;;;10.57;7.45;;;;;;;;;;5106621;28;20266;-77
2024/01/29 06:59:05;;;;;;;9.95;6.90;;;;;;;;;;5100280;28;20020;-77
2024/01/29 07:01:32;;;;;;;10.47;7.17;;;;;;;;;;5100370;28;20053;-77
2024/01/29 07:03:58;;;;;;;11.73;7.63;;;;;;;;;;5108760;28;20350;-77
2024/01/29 07:06:23;;;;;;;10.77;6.88;;;;;;;;;;5100511;28;20402;-77
2024/01/29 07:08:49;;;;;;;12.68;7.72;;;;;;;;;;5107791;28;20031;-77
2024/01/29 07:11:14;;;;;;;11.57;7.13;;;;;;;;;;5100417;28;20024;-77
2024/01/29 07:13:40;;;;;;;11.63;7.70;;;;;;;;;;5106217;28;20771;-77
2024/01/29 07:16:05;;;;;;;10.55;7.53;;;;;;;;;;5107550;28;20396;-77
2024/01/29 07:18:30;;;;;;;9.85;6.97;;;;;;;;;;5103551;28;20019;-76
2024/01/29 07:20:56;;;;;;;10.97;6.77;;;;;;;;;;5103821;28;20035;-77
2024/01/29 07:23:22;;;;;;;12.57;7.23;;;;;;;;;;5103326;28;20752;-77
2024/01/29 07:25:47;;;;;;;9.07;6.65;;;;;;;;;;5102702;28;20273;-77
2024/01/29 07:28:12;;;;;;;12.07;7.13;;;;;;;;;;5105968;28;20416;-77
2024/01/29 07:30:38;;;;;;;10.63;7.07;;;;;;;;;;5105543;28;20344;-77
2024/01/29 07:33:03;;;;;;;9.63;6.97;;;;;;;;;;5112038;28;20055;-77
2024/01/29 07:35:29;;;;;;;12.52;7.35;;;;;;;;;;5107345;28;20308;-77
2024/01/29 07:37:54;;;;;;;9.70;6.60;;;;;;;;;;5107106;28;20025;-77
2024/01/29 07:40:19;;;;;;;12.80;7.45;;;;;;;;;;5106581;28;20455;-76
2024/01/29 07:42:45;;;;;;;10.50;7.38;;;;;;;;;;5110557;28;20023;-77
2024/01/29 07:45:10;;;;;;;11.30;7.60;;;;;;;;;;5106753;28;20541;-76
2024/01/29 07:47:35;;;;;;;14.52;7.68;;;;;;;;;;5105613;28;20051;-76
2024/01/29 07:50:01;;;;;;;10.03;6.80;;;;;;;;;;5107213;28;20034;-76
2024/01/29 07:52:26;;;;;;;14.35;7.68;;;;;;;;;;5107022;28;20266;-76
2024/01/29 07:54:51;;;;;;;12.10;7.72;;;;;;;;;;5105826;28;20028;-76
2024/01/29 07:57:17;;;;;;;11.83;7.47;;;;;;;;;;5111430;28;20088;-76
2024/01/29 07:59:42;;;;;;;11.63;6.93;;;;;;;;;;5108921;28;20296;-76
2024/01/29 08:02:09;;;;;;;11.13;7.40;;;;;;;;;;5113294;28;20400;-77
2024/01/29 08:04:34;;;;;;;13.80;7.22;;;;;;;;;;5112691;28;20258;-76
2024/01/29 08:06:59;;;;;;;9.53;7.33;;;;;;;;;;5107618;28;20387;-77
2024/01/29 08:09:26;;;;;;;12.18;7.38;;;;;;;;;;5114348;28;20285;-77
2024/01/29 08:11:51;;;;;;;11.00;7.28;;;;;;;;;;5108175;27;20020;-76
2024/01/29 08:14:16;;;;;;;9.43;6.95;;;;;;;;;;5106607;28;20016;-77
2024/01/29 08:16:42;;;;;;;9.77;6.78;;;;;;;;;;5103588;28;20027;-76
2024/01/29 08:19:07;;;;;;;9.47;6.67;;;;;;;;;;5112835;28;20020;-76
2024/01/29 08:21:32;;;;;;;9.55;7.78;;;;;;;;;;5107500;28;20753;-76
2024/01/29 08:23:57;;;;;;;10.87;7.30;;;;;;;;;;5111017;28;20012;-76
2024/01/29 08:26:22;;;;;;;11.48;7.40;;;;;;;;;;5107405;28;20353;-76
2024/01/29 08:28:48;;;;;;;10.57;6.93;;;;;;;;;;5109753;28;20019;-76
2024/01/29 08:31:13;;;;;;;9.10;6.60;;;;;;;;;;5107426;28;20436;-76
2024/01/29 08:33:42;;;;;;;11.03;7.10;;;;;;;;;;5113114;28;20031;-76
2024/01/29 08:36:07;;;;;;;9.57;6.55;;;;;;;;;;5109679;28;20849;-76
2024/01/29 08:38:32;;;;;;;10.73;7.00;;;;;;;;;;5110048;28;20027;-76
2024/01/29 08:40:57;;;;;;;9.25;6.75;;;;;;;;;;5107930;28;20016;-77
2024/01/29 08:43:23;;;;;;;14.20;7.47;;;;;;;;;;5112706;28;20080;-76
2024/01/29 08:45:49;;;;;;;9.15;7.10;;;;;;;;;;5103439;28;20103;-74
2024/01/29 08:48:14;;;;;;;11.38;6.78;;;;;;;;;;5108730;28;20596;-73
2024/01/29 08:50:39;;;;;;;10.57;7.30;;;;;;;;;;5105089;28;20024;-73
2024/01/29 08:53:04;;;;;;;10.55;7.50;;;;;;;;;;5109190;28;20261;-73
2024/01/29 08:55:32;;;;;;;14.05;7.07;;;;;;;;;;5099911;28;20387;-73
2024/01/29 08:57:57;;;;;;;11.82;7.97;;;;;;;;;;5104202;28;20047;-73
2024/01/29 09:00:23;;;;;;;10.23;7.20;;;;;;;;;;5105377;28;20128;-73
2024/01/29 09:02:49;;;;;;;8.98;7.35;;;;;;;;;;5104038;28;20269;-73
2024/01/29 09:05:14;;;;;;;9.48;7.00;;;;;;;;;;5105831;28;20024;-73
2024/01/29 09:07:39;;;;;;;9.85;7.28;;;;;;;;;;5107639;28;20463;-73
2024/01/29 09:10:06;;;;;;;10.73;7.77;;;;;;;;;;5102833;28;20016;-73
2024/01/29 10:40:08;;;;;;;12.10;9.00;;;;;;;6.14;100.00;102668.25;5095235;27;20386;-75
2024/01/29 10:42:33;;;;;;;13.48;9.07;;;;;;;6.29;100.00;102673.81;5096530;28;20040;-75
2024/01/29 10:45:00;;;;;;;12.57;8.43;;;;;;;6.44;100.00;102672.41;5101193;28;20078;-75
2024/01/29 10:47:31;;;;;;;15.02;9.02;;;;;;;6.49;100.00;102666.50;5099389;28;20483;-75
2024/01/29 10:49:58;;;;;;;13.52;8.70;;;;;;;6.53;100.00;102657.06;5084247;28;20040;-75
2024/01/29 10:52:24;;;;;;;11.75;8.57;;;;;;;6.57;100.00;102648.50;5100588;28;20456;-75
2024/01/29 10:54:51;;;;;;;12.80;9.20;;;;;;;6.70;100.00;102663.53;5099327;28;20078;-75
2024/01/29 10:57:18;;;;;;;13.15;9.00;;;;;;;6.82;100.00;102669.78;5098108;28;20050;-75
2024/01/29 10:59:45;;;;;;;13.10;8.45;;;;;;;6.87;100.00;102663.00;5097189;28;20115;-75
2024/01/29 11:02:14;;;;;;;11.10;8.10;;;;;;;6.91;100.00;102660.50;5094283;28;20031;-75
2024/01/29 11:04:39;;;;;;;13.68;8.93;;;;;;;7.02;100.00;102666.75;5101359;28;20070;-75
2024/01/29 11:07:16;;;;;;;11.95;8.48;;;;;;;7.08;100.00;102658.25;5095776;28;20024;-75
2024/01/29 11:09:55;;;;;;;10.77;8.60;;;;;;;7.15;100.00;102654.03;5098490;28;20092;-76
2024/01/29 11:12:21;;;;;;;12.07;8.70;;;;;;;7.22;100.00;102661.09;5088986;28;20023;-75
2024/01/29 11:15:00;;;;;;;12.60;9.77;;;;;;;7.31;100.00;102657.81;5088078;28;20042;-75
2024/01/29 11:17:26;;;;;;;13.38;8.50;;;;;;;7.32;100.00;102654.38;5084563;28;20074;-75
2024/01/29 11:19:52;;;;;;;12.30;8.82;;;;;;;7.40;100.00;102663.19;5094031;28;20038;-76
2024/01/29 11:22:17;;;;;;;14.13;8.82;;;;;;;7.35;100.00;102636.25;5087885;28;20450;-76
2024/01/29 11:24:44;;;;;;;15.32;9.27;;;;;;;7.53;100.00;102659.97;5092661;28;20026;-75
2024/01/29 11:27:10;;;;;;;13.73;9.13;;;;;;;7.61;100.00;102653.19;5098400;28;20164;-75
2024/01/29 11:29:39;;;;;;;13.10;9.13;;;;;;;7.76;100.00;102651.72;5101144;28;20479;-75
2024/01/29 11:32:05;;;;;;;13.05;8.95;;;;;;;7.90;100.00;102655.41;5093989;28;20062;-75
2024/01/29 11:34:31;;;;;;;13.73;8.73;;;;;;;8.01;100.00;102651.28;5100174;28;20103;-75
2024/01/29 11:36:57;;;;;;;11.50;8.77;;;;;;;8.01;100.00;102639.97;5096319;28;20107;-75
2024/01/29 11:39:24;;;;;;;15.45;9.15;;;;;;;8.11;100.00;102642.78;5091320;28;20048;-75
2024/01/29 11:41:50;;;;;;;12.13;9.30;;;;;;;8.22;100.00;102640.34;5089832;28;20028;-76
2024/01/29 11:44:18;;;;;;;12.82;9.15;;;;;;;8.29;100.00;102630.91;5088750;28;20476;-76
2024/01/29 11:46:44;;;;;;;12.80;8.50;;;;;;;8.39;100.00;102638.00;5098952;28;20035;-76
2024/01/29 11:49:09;;;;;;;12.40;8.38;;;;;;;8.45;100.00;102635.50;5088462;28;20024;-75
2024/01/29 11:51:34;;;;;;;11.30;8.85;;;;;;;8.55;100.00;102631.31;5083270;28;20032;-76
2024/01/29 11:54:00;;;;;;;12.45;9.25;;;;;;;8.62;100.00;102630.53;5082497;28;20031;-76
2024/01/29 11:56:25;;;;;;;11.13;8.55;;;;;;;8.72;100.00;102628.91;5080213;28;20033;-76
2024/01/29 11:59:03;;;;;;;14.18;8.85;;;;;;;8.80;100.00;102629.91;5075389;28;20028;-75
2024/01/29 12:01:31;;;;;;;12.15;8.90;;;;;;;8.87;100.00;102624.78;5081996;28;20028;-76
2024/01/29 12:03:58;;;;;;;12.07;8.93;;;;;;;8.94;100.00;102622.25;5086235;28;20352;-75
2024/01/29 12:06:23;;;;;;;13.07;8.80;;;;;;;8.97;100.00;102620.56;5079228;28;20024;-75
2024/01/29 12:08:49;;;;;;;13.43;9.68;;;;;;;8.99;100.00;102608.47;5090170;28;20102;-75
2024/01/29 12:11:15;;;;;;;13.18;8.88;;;;;;;9.11;100.00;102613.78;5087061;28;20078;-75
2024/01/29 12:13:41;;;;;;;12.70;9.02;;;;;;;9.20;100.00;102609.53;5083188;28;20469;-75
2024/01/29 12:16:08;;;;;;;12.27;8.63;;;;;;;9.29;100.00;102614.84;5081902;28;20032;-76
2024/01/29 12:18:35;;;;;;;13.43;9.90;;;;;;;9.30;100.00;102616.56;5088826;28;20111;-76
2024/01/29 12:21:01;;;;;;;13.88;8.85;;;;;;;9.37;100.00;102607.97;5085185;28;20460;-76
2024/01/29 12:23:26;;;;;;;12.93;8.93;;;;;;;9.46;100.00;102613.28;5075610;28;20047;-76
2024/01/29 12:25:55;;;;;;;13.23;8.68;;;;;;;9.55;100.00;102608.16;5077702;28;20016;-75
2024/01/29 12:28:22;;;;;;;13.32;9.20;;;;;;;9.69;100.00;102612.59;5088747;28;20028;-76
2024/01/29 12:30:57;;;;;;;11.68;9.20;;;;;;;9.82;100.00;102617.06;5083476;28;20074;-76
2024/01/29 12:33:30;;;;;;;16.85;8.93;;;;;;;9.85;100.00;102610.13;5080790;28;20551;-75
2024/01/29 12:35:57;;;;;;;13.45;9.10;;;;;;;9.88;100.00;102603.22;5085416;28;20149;-76
2024/01/29 12:38:22;;;;;;;11.52;8.15;;;;;;;9.94;100.00;102619.75;5084082;28;20055;-76
2024/01/29 12:40:57;;;;;;;14.75;8.98;;;;;;;10.05;100.00;102612.88;5082888;28;20418;-75
2024/01/29 12:43:29;;;;;;;14.75;8.82;;;;;;;10.20;100.00;102611.22;5083226;28;20392;-75
2024/01/29 12:46:11;;;;;;;12.95;8.88;;;;;;;10.26;100.00;102622.59;5082698;28;20031;-76
2024/01/29 12:48:36;;;;;;;11.18;8.15;;;;;;;10.35;100.00;102618.31;5084497;28;20103;-76
2024/01/29 12:51:02;;;;;;;11.30;8.88;;;;;;;10.33;100.00;102610.47;5076118;28;20070;-76
2024/01/29 12:53:27;;;;;;;13.82;8.77;;;;;;;10.39;100.00;102610.50;5083325;28;20052;-76
2024/01/29 12:55:52;;;;;;;11.73;8.57;;;;;;;10.46;100.00;102612.31;5081554;28;20377;-76
2024/01/29 12:58:18;;;;;;;11.32;9.02;;;;;;;10.56;100.00;102613.19;5075901;28;20021;-76
2024/01/29 13:00:44;;;;;;;10.13;8.05;;;;;;;10.66;100.00;102617.63;5082642;28;20044;-76
2024/01/29 13:03:10;;;;;;;11.55;8.52;;;;;;;10.74;100.00;102609.81;5080120;28;20031;-76
2024/01/29 13:05:36;;;;;;;11.70;8.20;;;;;;;10.86;100.00;102601.19;5081755;28;20078;-76
2024/01/29 13:08:02;;;;;;;14.20;8.25;;;;;;;10.99;100.00;102602.97;5078509;28;20032;-76
2024/01/29 13:10:29;;;;;;;10.95;8.50;;;;;;;11.12;100.00;102606.47;5082621;28;20028;-76
2024/01/29 13:13:06;;;;;;;11.57;7.70;;;;;;;11.25;100.00;102610.84;5081430;28;20383;-76
2024/01/29 13:15:32;;;;;;;10.82;8.40;;;;;;;11.21;100.00;102609.06;5080619;28;20091;-76
2024/01/29 13:17:58;;;;;;;13.73;9.00;;;;;;;11.16;100.00;102603.00;5081205;28;20441;-76
2024/01/29 13:20:23;;;;;;;12.60;8.40;;;;;;;11.15;100.00;102601.22;5082130;28;20085;-76
2024/01/29 13:22:49;;;;;;;10.48;8.50;;;;;;;11.12;100.00;102602.13;5080903;28;20028;-76
2024/01/29 13:25:15;;;;;;;11.30;8.85;;;;;;;11.07;100.00;102600.34;5077153;28;20426;-76
2024/01/29 13:27:40;;;;;;;12.52;8.93;;;;;;;10.94;100.00;102595.09;5083385;28;20532;-76
2024/01/29 13:30:06;;;;;;;12.73;8.85;;;;;;;10.94;100.00;102605.53;5083876;28;20086;-76
2024/01/29 13:32:32;;;;;;;17.63;9.13;;;;;;;10.89;100.00;102602.06;5086354;28;20039;-76
2024/01/29 13:34:58;;;;;;;12.00;8.90;;;;;;;10.91;100.00;102602.91;5079554;28;20078;-76
2024/01/29 13:37:23;;;;;;;13.98;8.90;;;;;;;10.96;100.00;102593.38;5082979;28;20028;-76
2024/01/29 13:39:49;;;;;;;10.65;8.13;;;;;;;11.13;100.00;102595.16;5079752;28;20511;-76
2024/01/29 13:42:14;;;;;;;11.43;8.55;;;;;;;11.21;100.00;102593.41;5078351;28;20063;-76
2024/01/29 13:44:40;;;;;;;11.45;8.85;;;;;;;11.17;100.00;102589.06;5074066;28;20036;-76
2024/01/29 13:47:05;;;;;;;11.13;8.93;;;;;;;11.13;100.00;102600.38;5076150;28;20035;-76
2024/01/29 13:49:31;;;;;;;11.35;9.00;;;;;;;11.03;100.00;102591.66;5070494;28;20135;-76
2024/01/29 13:51:56;;;;;;;11.43;8.73;;;;;;;10.94;100.00;102592.47;5084187;28;20036;-77
2024/01/29 13:54:21;;;;;;;13.02;9.15;;;;;;;10.85;100.00;102588.97;5076268;28;20027;-76
2024/01/29 13:56:47;;;;;;;10.93;8.98;;;;;;;10.86;100.00;102590.75;5076541;28;20081;-76
2024/01/29 13:59:12;;;;;;;12.57;8.80;;;;;;;10.79;100.00;102600.28;5080400;28;20077;-75
2024/01/29 14:01:38;;;;;;;12.80;9.20;;;;;;;10.72;100.00;102586.31;5074385;28;20502;-76
2024/01/29 14:04:04;;;;;;;16.13;9.23;;;;;;;10.72;100.00;102594.13;5084834;28;20380;-75
2024/01/29 14:06:29;;;;;;;12.45;8.65;;;;;;;10.66;100.00;102583.72;5080399;28;20056;-76
2024/01/29 14:08:54;;;;;;;11.18;8.32;;;;;;;10.67;100.00;102590.66;5084599;28;20025;-76
2024/01/29 14:11:22;;;;;;;13.27;9.82;;;;;;;10.64;100.00;102584.56;5076198;28;20485;-77
2024/01/29 14:13:49;;;;;;;12.45;9.68;;;;;;;10.67;100.00;102585.44;5077160;28;20044;-76
2024/01/29 14:16:14;;;;;;;12.30;9.65;;;;;;;10.69;100.00;102590.66;5081458;28;20035;-76
2024/01/29 14:18:39;;;;;;;12.35;8.90;;;;;;;10.74;100.00;102586.34;5080719;28;20024;-74
2024/01/29 14:21:04;;;;;;;15.80;10.07;;;;;;;10.78;100.00;102578.50;5077791;28;20089;-74
2024/01/29 14:23:30;;;;;;;14.60;9.07;;;;;;;10.80;100.00;102585.50;5078167;28;20028;-73
2024/01/29 14:25:55;;;;;;;11.35;8.90;;;;;;;10.80;100.00;102593.31;5084626;28;20020;-73
2024/01/29 14:28:21;;;;;;;13.68;9.35;;;;;;;10.78;100.00;102582.88;5077480;28;20379;-73
2024/01/29 14:30:46;;;;;;;15.82;10.25;;;;;;;10.75;100.00;102590.69;5076571;28;20032;-73
2024/01/29 14:33:13;;;;;;;12.20;9.55;;;;;;;10.72;100.00;102577.63;5075282;28;20100;-73
2024/01/29 14:35:38;;;;;;;12.95;9.70;;;;;;;10.67;100.00;102584.56;5082149;28;20032;-73
2024/01/29 14:38:06;;;;;;;15.02;10.20;;;;;;;10.59;100.00;102571.47;5083372;28;20081;-73
2024/01/29 14:40:31;;;;;;;13.13;8.98;;;;;;;10.57;100.00;102572.38;5081234;28;20082;-75